createdAt,value
2023-02-08T00:00:50.401Z,33.20
2023-02-08T00:03:17.583Z,31.90
2023-02-08T00:05:44.338Z,35.23
2023-02-08T00:08:11.133Z,33.23
2023-02-08T00:10:37.908Z,34.90
2023-02-08T00:13:04.718Z,29.70
2023-02-08T00:15:31.798Z,29.00
2023-02-08T00:17:58.525Z,33.27
2023-02-08T00:20:25.213Z,31.60
2023-02-08T00:22:53.269Z,38.07
2023-02-08T00:25:20.296Z,35.07
2023-02-08T00:27:47.043Z,27.73
2023-02-08T00:30:13.868Z,30.93
2023-02-08T00:32:40.539Z,29.77
2023-02-08T00:35:07.625Z,27.53
2023-02-08T00:37:34.394Z,30.77
2023-02-08T00:40:02.565Z,32.53
2023-02-08T00:42:30.252Z,29.93
2023-02-08T00:44:57.148Z,34.23
2023-02-08T00:47:24.449Z,34.37
2023-02-08T00:49:51.676Z,32.27
2023-02-08T00:52:19.123Z,25.57
2023-02-08T00:54:46.869Z,32.00
2023-02-08T00:57:14.720Z,32.00
2023-02-08T00:59:41.524Z,26.50
2023-02-08T01:02:08.412Z,24.47
2023-02-08T01:04:35.142Z,24.53
2023-02-08T01:07:01.840Z,24.20
2023-02-08T01:09:28.792Z,30.10
2023-02-08T01:11:55.473Z,30.60
2023-02-08T01:14:22.216Z,30.50
2023-02-08T01:16:49.114Z,31.97
2023-02-08T01:19:16.337Z,33.07
2023-02-08T01:21:43.985Z,31.87
2023-02-08T01:24:12.265Z,32.60
2023-02-08T01:26:39.165Z,31.27
2023-02-08T01:29:06.290Z,32.23
2023-02-08T01:31:35.700Z,29.73
2023-02-08T01:34:03.271Z,25.50
2023-02-08T01:36:31.488Z,26.23
2023-02-08T01:38:58.591Z,30.50
2023-02-08T01:41:31.746Z,29.27
2023-02-08T01:44:13.545Z,34.90
2023-02-08T01:46:43.043Z,30.43
2023-02-08T01:49:34.637Z,26.43
2023-02-08T01:52:06.128Z,31.60
2023-02-08T01:54:38.185Z,29.57
2023-02-08T01:57:06.182Z,31.60
2023-02-08T01:59:41.195Z,28.50
2023-02-08T02:02:11.853Z,32.67
2023-02-08T02:04:39.172Z,33.53
2023-02-08T02:07:06.591Z,29.33
2023-02-08T02:09:45.794Z,31.53
2023-02-08T02:12:14.026Z,27.77
2023-02-08T02:14:42.347Z,25.50
2023-02-08T02:17:11.882Z,24.50
2023-02-08T02:20:10.620Z,23.27
2023-02-08T02:22:55.171Z,29.47
2023-02-08T02:25:50.621Z,28.40
2023-02-08T02:28:50.060Z,30.43
2023-02-08T02:32:01.326Z,29.47
2023-02-08T02:35:04.242Z,27.60
2023-02-08T02:37:49.094Z,32.85
2023-02-08T02:40:21.696Z,32.33
2023-02-08T02:43:19.090Z,31.27
2023-02-08T02:46:22.973Z,30.70
2023-02-08T02:49:11.226Z,29.97
2023-02-08T02:51:48.380Z,35.07
2023-02-08T02:54:27.457Z,35.07
2023-02-08T02:57:00.696Z,31.00
2023-02-08T02:59:28.771Z,31.90
2023-02-08T03:01:56.690Z,32.00
2023-02-08T03:04:32.741Z,40.57
2023-02-08T03:07:26.508Z,39.47
2023-02-08T03:10:11.741Z,33.90
2023-02-08T03:13:05.913Z,35.80
2023-02-08T03:16:03.118Z,29.65
2023-02-08T03:18:50.192Z,26.70
2023-02-08T03:21:28.681Z,35.77
2023-02-08T03:24:37.473Z,30.63
2023-02-08T03:27:23.368Z,33.90
2023-02-08T03:30:22.295Z,30.93
2023-02-08T03:33:05.675Z,31.90
2023-02-08T03:35:53.302Z,28.10
2023-02-08T03:38:26.151Z,29.80
2023-02-08T03:43:33.915Z,33.77
2023-02-08T03:46:10.855Z,30.87
2023-02-08T03:48:40.557Z,32.73
2023-02-08T03:51:09.141Z,30.47
2023-02-08T03:53:40.428Z,32.20
2023-02-08T03:56:14.718Z,33.07
2023-02-08T03:59:03.593Z,28.23
2023-02-08T04:01:41.030Z,29.67
2023-02-08T04:04:08.557Z,30.40
2023-02-08T04:06:35.264Z,31.53
2023-02-08T04:09:02.007Z,30.87
2023-02-08T04:11:28.830Z,32.80
2023-02-08T04:13:55.555Z,30.13
2023-02-08T04:16:22.284Z,30.90
2023-02-08T04:18:49.057Z,34.40
2023-02-08T04:21:17.094Z,31.63
2023-02-08T04:23:43.909Z,31.67
2023-02-08T04:26:10.712Z,36.17
2023-02-08T04:28:37.482Z,35.17
2023-02-08T04:31:04.373Z,29.53
2023-02-08T04:33:31.201Z,34.10
2023-02-08T04:35:57.952Z,30.57
2023-02-08T04:38:24.668Z,31.87
2023-02-08T04:40:51.385Z,32.70
2023-02-08T04:43:18.126Z,33.63
2023-02-08T04:45:45.061Z,31.83
2023-02-08T04:48:12.125Z,34.33
2023-02-08T04:50:39.585Z,35.77
2023-02-08T04:53:06.736Z,29.20
2023-02-08T04:55:34.012Z,33.60
2023-02-08T04:58:00.791Z,31.27
2023-02-08T05:00:27.869Z,32.30
2023-02-08T05:02:57.115Z,30.80
2023-02-08T05:05:28.470Z,38.00
2023-02-08T05:07:55.220Z,34.83
2023-02-08T05:10:22.517Z,31.43
2023-02-08T05:12:49.285Z,30.50
2023-02-08T05:15:16.088Z,34.50
2023-02-08T05:17:42.858Z,33.23
2023-02-08T05:20:11.036Z,30.27
2023-02-08T05:22:37.957Z,30.77
2023-02-08T05:25:05.608Z,35.20
2023-02-08T05:27:34.534Z,32.10
2023-02-08T05:30:01.613Z,37.13
2023-02-08T05:32:28.651Z,29.50
2023-02-08T05:34:55.365Z,30.17
2023-02-08T05:37:22.096Z,32.27
2023-02-08T05:39:48.809Z,37.70
2023-02-08T05:42:15.551Z,30.77
2023-02-08T05:44:42.294Z,35.63
2023-02-08T05:47:09.060Z,34.90
2023-02-08T05:49:35.789Z,33.70
2023-02-08T05:52:02.531Z,30.87
2023-02-08T05:54:29.271Z,37.87
2023-02-08T05:56:56.027Z,47.90
2023-02-08T05:59:22.777Z,41.63
2023-02-08T06:01:49.504Z,34.70
2023-02-08T06:04:16.305Z,36.83
2023-02-08T06:06:43.328Z,44.60
2023-02-08T06:09:10.107Z,40.80
2023-02-08T06:11:36.865Z,42.47
2023-02-08T06:14:04.833Z,44.93
2023-02-08T06:16:31.635Z,37.10
2023-02-08T06:18:58.412Z,31.10
2023-02-08T06:21:25.334Z,37.67
2023-02-08T06:23:52.159Z,33.10
2023-02-08T06:26:18.888Z,37.17
2023-02-08T06:28:45.750Z,34.10
2023-02-08T06:31:12.476Z,33.13
2023-02-08T06:33:39.264Z,33.47
2023-02-08T06:36:06.591Z,36.87
2023-02-08T06:38:33.347Z,35.27
2023-02-08T06:41:00.155Z,40.00
2023-02-08T06:43:26.925Z,40.47
2023-02-08T06:45:53.702Z,36.20
2023-02-08T06:48:22.500Z,39.93
2023-02-08T06:50:51.847Z,50.37
2023-02-08T06:53:18.601Z,34.10
2023-02-08T06:55:49.064Z,80.60
2023-02-08T06:58:15.891Z,210.93
2023-02-08T07:00:42.853Z,207.00
2023-02-08T07:03:10.101Z,227.97
2023-02-08T07:05:36.871Z,116.73
2023-02-08T07:08:04.834Z,62.73
2023-02-08T07:10:32.194Z,49.37
2023-02-08T07:12:59.038Z,74.53
2023-02-08T07:15:25.821Z,82.73
2023-02-08T07:17:52.546Z,51.20
2023-02-08T07:20:19.381Z,52.80
2023-02-08T07:22:46.123Z,49.47
2023-02-08T07:25:12.879Z,64.93
2023-02-08T07:27:39.743Z,70.03
2023-02-08T07:30:08.160Z,76.20
2023-02-08T07:32:35.649Z,66.73
2023-02-08T07:35:02.475Z,54.93
2023-02-08T07:37:29.685Z,68.90
2023-02-08T07:39:56.700Z,74.50
2023-02-08T07:42:23.464Z,83.53
2023-02-08T07:44:50.718Z,55.57
2023-02-08T07:47:17.502Z,50.77
2023-02-08T07:49:44.466Z,44.27
2023-02-08T07:52:11.303Z,56.90
2023-02-08T07:54:38.007Z,35.77
2023-02-08T07:57:04.774Z,47.77
2023-02-08T07:59:31.554Z,45.93
2023-02-08T08:01:58.414Z,50.80
2023-02-08T08:04:25.227Z,41.17
2023-02-08T08:06:53.614Z,36.17
2023-02-08T08:09:20.461Z,40.53
2023-02-08T08:11:47.205Z,39.20
2023-02-08T08:14:14.134Z,41.97
2023-02-08T08:16:42.412Z,44.27
2023-02-08T08:19:09.256Z,44.00
2023-02-08T08:21:36.046Z,46.70
2023-02-08T08:24:02.780Z,41.47
2023-02-08T08:26:29.861Z,41.37
2023-02-08T08:28:56.687Z,38.83
2023-02-08T08:31:23.489Z,41.03
2023-02-08T08:33:50.476Z,35.97
2023-02-08T08:36:17.333Z,38.97
2023-02-08T08:38:44.195Z,40.10
2023-02-08T08:41:17.748Z,36.13
2023-02-08T08:43:44.830Z,38.93
2023-02-08T08:46:12.070Z,41.30
2023-02-08T08:48:38.965Z,36.47
2023-02-08T08:51:06.451Z,42.93
2023-02-08T08:53:33.667Z,40.10
2023-02-08T08:56:00.680Z,41.87
2023-02-08T08:58:27.407Z,36.03
2023-02-08T09:00:57.225Z,38.50
2023-02-08T09:03:24.203Z,41.30
2023-02-08T09:05:51.651Z,43.13
2023-02-08T09:08:18.542Z,38.97
2023-02-08T09:10:45.598Z,38.00
2023-02-08T09:13:19.157Z,38.40
2023-02-08T09:15:46.926Z,42.70
2023-02-08T09:18:13.868Z,45.17
2023-02-08T09:20:41.607Z,36.20
2023-02-08T09:23:08.628Z,40.87
2023-02-08T09:25:36.918Z,43.23
2023-02-08T09:28:04.181Z,42.53
2023-02-08T09:30:31.012Z,41.93
2023-02-08T09:32:57.708Z,38.53
2023-02-08T09:35:24.456Z,35.03
2023-02-08T09:37:55.301Z,40.70
2023-02-08T09:40:33.922Z,35.30
2023-02-08T09:43:50.190Z,43.80
2023-02-08T09:46:22.489Z,41.63
2023-02-08T09:48:52.413Z,43.60
2023-02-08T09:51:50.176Z,40.07
2023-02-08T09:54:24.118Z,44.97
2023-02-08T09:56:52.563Z,43.77
2023-02-08T09:59:29.443Z,39.27
2023-02-08T10:02:22.320Z,44.10
2023-02-08T10:05:05.708Z,43.88
2023-02-08T10:10:05.768Z,36.65
2023-02-08T10:12:43.646Z,47.63
2023-02-08T10:15:36.959Z,59.60
2023-02-08T10:18:16.512Z,43.60
2023-02-08T10:20:43.512Z,41.22
2023-02-08T10:23:27.730Z,40.23
2023-02-08T10:26:13.100Z,39.83
2023-02-08T10:29:02.830Z,39.80
2023-02-08T10:31:53.558Z,36.28
2023-02-08T10:34:34.164Z,37.70
2023-02-08T10:37:04.888Z,35.53
2023-02-08T10:39:35.809Z,32.53
2023-02-08T10:42:04.418Z,32.03
2023-02-08T10:44:45.780Z,37.15
2023-02-08T10:47:32.394Z,33.33
2023-02-08T10:50:07.297Z,36.85
2023-02-08T10:52:34.156Z,35.47
2023-02-08T10:55:01.264Z,37.40
2023-02-08T10:57:34.451Z,38.53
2023-02-08T11:00:31.151Z,39.13
2023-02-08T11:03:03.457Z,34.70
2023-02-08T11:05:35.980Z,29.83
2023-02-08T11:08:16.052Z,31.02
2023-02-08T11:11:03.936Z,31.08
2023-02-08T11:13:37.990Z,30.98
2023-02-08T11:16:07.218Z,32.83
2023-02-08T11:18:37.857Z,35.17
2023-02-08T11:21:10.502Z,29.63
2023-02-08T11:23:41.469Z,31.90
2023-02-08T11:26:37.020Z,27.85
2023-02-08T11:29:09.800Z,27.05
2023-02-08T11:31:36.785Z,27.23
2023-02-08T11:34:11.561Z,28.60
2023-02-08T11:36:48.519Z,30.00
2023-02-08T11:39:49.434Z,25.73
2023-02-08T11:42:25.990Z,24.55
2023-02-08T11:44:55.202Z,26.50
2023-02-08T11:47:32.387Z,21.88
2023-02-08T11:50:02.225Z,24.48
2023-02-08T11:52:35.498Z,26.42
2023-02-08T11:55:16.731Z,19.67
2023-02-08T11:58:24.077Z,21.63
2023-02-08T12:01:06.497Z,15.82
2023-02-08T12:03:38.658Z,15.88
2023-02-08T12:06:28.692Z,16.77
2023-02-08T12:09:13.355Z,13.68
2023-02-08T12:11:46.370Z,15.43
2023-02-08T12:14:34.348Z,13.80
2023-02-08T12:17:20.947Z,16.35
2023-02-08T12:20:23.380Z,12.27
2023-02-08T12:23:15.054Z,14.15
2023-02-08T12:25:47.265Z,13.88
2023-02-08T12:28:27.836Z,14.50
2023-02-08T12:31:27.060Z,14.85
2023-02-08T12:34:12.625Z,16.38
2023-02-08T12:37:18.164Z,13.02
2023-02-08T12:40:03.520Z,14.68
2023-02-08T12:42:33.517Z,11.30
2023-02-08T12:45:09.944Z,15.40
2023-02-08T12:48:04.349Z,12.60
2023-02-08T12:50:50.656Z,13.70
2023-02-08T12:53:33.417Z,15.20
2023-02-08T12:56:05.515Z,13.17
2023-02-08T12:58:39.866Z,16.15
2023-02-08T13:01:14.497Z,15.27
2023-02-08T13:03:47.714Z,15.13
2023-02-08T13:06:21.322Z,15.40
2023-02-08T13:09:13.099Z,15.93
2023-02-08T13:12:05.066Z,15.68
2023-02-08T13:14:38.156Z,14.25
2023-02-08T13:17:16.873Z,14.80
2023-02-08T13:20:00.139Z,14.35
2023-02-08T13:22:33.023Z,13.05
2023-02-08T13:25:07.696Z,16.67
2023-02-08T13:27:35.432Z,14.43
2023-02-08T13:30:02.813Z,21.92
2023-02-08T13:32:44.045Z,12.77
2023-02-08T13:35:23.781Z,16.80
2023-02-08T13:37:53.103Z,17.40
2023-02-08T13:40:29.607Z,15.45
2023-02-08T13:43:11.012Z,16.83
2023-02-08T13:45:42.399Z,16.23
2023-02-08T13:48:12.859Z,18.17
2023-02-08T13:50:52.509Z,14.88
2023-02-08T13:53:39.270Z,18.02
2023-02-08T13:56:10.635Z,16.02
2023-02-08T13:58:49.377Z,17.30
2023-02-08T14:01:22.241Z,16.33
2023-02-08T14:04:07.116Z,14.13
2023-02-08T14:07:01.008Z,18.38
2023-02-08T14:09:42.032Z,15.45
2023-02-08T14:12:26.871Z,15.65
2023-02-08T14:15:06.961Z,18.50
2023-02-08T14:17:34.417Z,19.92
2023-02-08T14:20:08.195Z,17.02
2023-02-08T14:22:47.883Z,16.92
2023-02-08T14:25:41.874Z,20.73
2023-02-08T14:28:25.908Z,20.88
2023-02-08T14:30:55.881Z,21.35
2023-02-08T14:33:28.137Z,19.45
2023-02-08T14:36:08.300Z,19.90
2023-02-08T14:38:52.139Z,20.77
2023-02-08T14:41:46.809Z,21.20
2023-02-08T14:44:38.645Z,19.38
2023-02-08T14:47:26.802Z,17.95
2023-02-08T14:50:16.167Z,20.65
2023-02-08T14:52:57.704Z,18.17
2023-02-08T14:55:27.847Z,16.13
2023-02-08T14:57:56.676Z,20.50
2023-02-08T15:00:28.419Z,18.73
2023-02-08T15:02:56.531Z,19.48
2023-02-08T15:05:26.145Z,18.27
2023-02-08T15:07:55.556Z,19.13
2023-02-08T15:10:25.738Z,58.97
2023-02-08T15:12:55.965Z,21.42
2023-02-08T15:15:31.322Z,21.90
2023-02-08T15:17:59.783Z,25.25
2023-02-08T15:20:32.620Z,28.38
2023-02-08T15:23:02.386Z,23.20
2023-02-08T15:25:33.868Z,28.05
2023-02-08T15:28:04.037Z,28.17
2023-02-08T15:30:36.536Z,26.25
2023-02-08T15:33:14.799Z,25.73
2023-02-08T15:35:43.220Z,26.73
2023-02-08T15:38:17.937Z,27.73
2023-02-08T15:41:09.753Z,31.35
2023-02-08T15:43:38.113Z,27.98
2023-02-08T15:46:15.778Z,26.13
2023-02-08T15:48:45.798Z,27.30
2023-02-08T15:51:14.690Z,30.90
2023-02-08T15:53:45.085Z,31.35
2023-02-08T15:56:37.174Z,31.33
2023-02-08T15:59:08.136Z,33.15
2023-02-08T16:01:35.147Z,37.05
2023-02-08T16:04:12.410Z,41.70
2023-02-08T16:06:46.384Z,34.92
2023-02-08T16:09:19.007Z,25.75
2023-02-08T16:11:49.847Z,30.27
2023-02-08T16:14:18.716Z,28.95
2023-02-08T16:16:49.929Z,29.98
2023-02-08T16:19:28.449Z,26.92
2023-02-08T16:22:14.601Z,25.40
2023-02-08T16:24:46.865Z,27.58
2023-02-08T16:27:28.758Z,25.92
2023-02-08T16:29:55.880Z,28.75
2023-02-08T16:32:31.958Z,25.48
2023-02-08T16:35:01.265Z,26.02
2023-02-08T16:37:35.478Z,27.17
2023-02-08T16:40:20.436Z,26.00
2023-02-08T16:42:47.337Z,28.23
2023-02-08T16:45:17.141Z,26.15
2023-02-08T16:47:51.622Z,27.60
2023-02-08T16:50:29.190Z,25.52
2023-02-08T16:53:03.739Z,28.83
2023-02-08T16:55:33.183Z,28.73
2023-02-08T16:57:59.971Z,28.45
2023-02-08T17:00:31.313Z,32.13
2023-02-08T17:02:58.704Z,34.67
2023-02-08T17:05:29.454Z,33.25
2023-02-08T17:07:56.877Z,34.17
2023-02-08T17:10:23.752Z,35.85
2023-02-08T17:12:50.594Z,32.75
2023-02-08T17:15:17.876Z,32.92
2023-02-08T17:17:44.668Z,39.72
2023-02-08T17:20:31.016Z,48.60
2023-02-08T17:23:00.077Z,46.38
2023-02-08T17:25:28.045Z,49.38
2023-02-08T17:28:02.284Z,44.63
2023-02-08T17:30:31.934Z,41.08
2023-02-08T17:32:58.850Z,36.35
2023-02-08T17:35:28.295Z,34.72
2023-02-08T17:37:56.811Z,49.80
2023-02-08T17:40:27.023Z,58.22
2023-02-08T17:42:54.348Z,69.80
2023-02-08T17:45:21.270Z,57.83
2023-02-08T17:47:48.250Z,43.03
2023-02-08T17:50:18.174Z,37.50
2023-02-08T17:52:45.864Z,37.45
2023-02-08T17:55:15.204Z,37.67
2023-02-08T17:57:43.052Z,32.80
2023-02-08T18:00:15.954Z,43.63
2023-02-08T18:02:47.469Z,34.97
2023-02-08T18:05:20.225Z,36.42
2023-02-08T18:07:47.305Z,46.50
2023-02-08T18:10:15.488Z,40.08
2023-02-08T18:12:42.940Z,48.10
2023-02-08T18:15:13.305Z,48.00
2023-02-08T18:17:40.966Z,46.97
2023-02-08T18:20:09.689Z,51.72
2023-02-08T18:22:37.993Z,46.85
2023-02-08T18:25:05.607Z,40.90
2023-02-08T18:27:32.368Z,44.75
2023-02-08T18:29:59.660Z,41.53
2023-02-08T18:32:28.076Z,30.35
2023-02-08T18:34:55.627Z,38.40
2023-02-08T18:37:23.264Z,39.60
2023-02-08T18:39:52.183Z,49.63
2023-02-08T18:42:19.202Z,43.53
2023-02-08T18:44:46.027Z,42.07
2023-02-08T18:47:12.794Z,49.57
2023-02-08T18:49:42.322Z,39.70
2023-02-08T18:52:11.470Z,39.93
2023-02-08T18:54:39.530Z,32.33
2023-02-08T18:57:09.580Z,51.77
2023-02-08T18:59:39.033Z,42.73
2023-02-08T19:02:07.149Z,36.30
2023-02-08T19:04:38.478Z,40.60
2023-02-08T19:07:05.934Z,33.17
2023-02-08T19:09:35.917Z,51.57
2023-02-08T19:12:03.315Z,43.00
2023-02-08T19:14:30.200Z,39.53
2023-02-08T19:16:56.988Z,42.83
2023-02-08T19:19:23.718Z,31.90
2023-02-08T19:21:50.514Z,35.33
2023-02-08T19:24:19.460Z,37.53
2023-02-08T19:26:47.064Z,32.33
2023-02-08T19:29:16.424Z,30.17
2023-02-08T19:31:44.716Z,37.27
2023-02-08T19:34:12.880Z,31.53
2023-02-08T19:36:49.446Z,34.57
2023-02-08T19:39:20.584Z,34.30
2023-02-08T19:41:47.831Z,30.80
2023-02-08T19:44:17.217Z,39.30
2023-02-08T19:46:51.809Z,33.23
2023-02-08T19:49:18.835Z,29.43
2023-02-08T19:51:45.605Z,27.47
2023-02-08T19:54:15.947Z,31.23
2023-02-08T19:56:42.846Z,35.17
2023-02-08T19:59:18.633Z,36.30
2023-02-08T20:01:46.083Z,35.10
2023-02-08T20:04:13.586Z,33.47
2023-02-08T20:06:40.866Z,31.83
2023-02-08T20:09:08.559Z,36.23
2023-02-08T20:11:54.753Z,30.30
2023-02-08T20:14:23.664Z,31.50
2023-02-08T20:16:50.416Z,31.63
2023-02-08T20:19:17.383Z,33.37
2023-02-08T20:21:45.370Z,31.10
2023-02-08T20:24:13.021Z,32.60
2023-02-08T20:26:42.909Z,30.93
2023-02-08T20:29:10.227Z,30.87
2023-02-08T20:31:38.884Z,28.93
2023-02-08T20:34:08.589Z,31.70
2023-02-08T20:36:40.373Z,27.83
2023-02-08T20:39:08.698Z,31.13
2023-02-08T20:41:35.598Z,28.77
2023-02-08T20:44:02.344Z,31.13
2023-02-08T20:46:33.717Z,29.97
2023-02-08T20:49:02.406Z,32.73
2023-02-08T20:51:30.301Z,27.87
2023-02-08T20:54:00.416Z,27.37
2023-02-08T20:56:30.269Z,28.27
2023-02-08T20:58:57.213Z,27.87
2023-02-08T21:01:26.657Z,30.63
2023-02-08T21:03:55.135Z,29.03
2023-02-08T21:06:26.452Z,24.77
2023-02-08T21:08:55.306Z,28.23
2023-02-08T21:11:24.944Z,34.57
2023-02-08T21:13:52.065Z,28.57
2023-02-08T21:16:19.153Z,29.20
2023-02-08T21:18:47.031Z,35.97
2023-02-08T21:21:15.336Z,33.00
2023-02-08T21:23:43.025Z,33.13
2023-02-08T21:26:11.929Z,31.80
2023-02-08T21:28:38.771Z,28.13
2023-02-08T21:31:14.533Z,29.03
2023-02-08T21:33:42.756Z,30.33
2023-02-08T21:36:14.230Z,29.57
2023-02-08T21:38:41.713Z,30.30
2023-02-08T21:41:16.783Z,24.60
2023-02-08T21:43:43.552Z,27.77
2023-02-08T21:46:10.546Z,28.27
2023-02-08T21:48:55.790Z,40.43
2023-02-08T21:51:43.037Z,39.27
2023-02-08T21:54:35.159Z,31.77
2023-02-08T21:57:03.940Z,31.10
2023-02-08T21:59:36.486Z,25.93
2023-02-08T22:02:21.894Z,27.92
2023-02-08T22:04:49.486Z,33.33
2023-02-08T22:07:16.452Z,37.67
2023-02-08T22:09:43.326Z,27.50
2023-02-08T22:12:15.458Z,28.50
2023-02-08T22:14:42.520Z,29.20
2023-02-08T22:17:09.826Z,29.53
2023-02-08T22:19:38.649Z,32.70
2023-02-08T22:22:05.913Z,33.13
2023-02-08T22:24:34.030Z,34.20
2023-02-08T22:27:01.702Z,31.13
2023-02-08T22:29:28.871Z,29.37
2023-02-08T22:31:55.675Z,30.13
2023-02-08T22:34:22.543Z,31.87
2023-02-08T22:36:49.303Z,35.27
2023-02-08T22:39:16.074Z,32.33
2023-02-08T22:41:42.855Z,29.60
2023-02-08T22:44:09.596Z,24.70
2023-02-08T22:46:36.372Z,27.63
2023-02-08T22:49:03.225Z,31.40
2023-02-08T22:51:30.261Z,28.33
2023-02-08T22:53:56.970Z,27.90
2023-02-08T22:56:23.692Z,30.90
2023-02-08T22:58:50.453Z,27.47
2023-02-08T23:01:17.742Z,26.53
2023-02-08T23:03:44.686Z,24.80
2023-02-08T23:06:15.802Z,29.60
2023-02-08T23:08:44.288Z,28.27
2023-02-08T23:11:13.342Z,31.87
2023-02-08T23:13:40.814Z,39.70
2023-02-08T23:16:07.725Z,30.40
2023-02-08T23:18:35.907Z,27.40
2023-02-08T23:21:07.805Z,24.93
2023-02-08T23:23:34.693Z,27.23
2023-02-08T23:26:05.077Z,33.43
2023-02-08T23:28:32.382Z,27.53
2023-02-08T23:31:00.020Z,30.67
2023-02-08T23:33:26.820Z,31.63
2023-02-08T23:35:53.544Z,30.13
2023-02-08T23:38:20.368Z,28.13
2023-02-08T23:40:47.261Z,28.90
2023-02-08T23:43:14.146Z,28.47
2023-02-08T23:45:40.956Z,30.83
2023-02-08T23:48:07.731Z,30.47
2023-02-08T23:50:34.501Z,31.80
2023-02-08T23:53:01.232Z,27.43
2023-02-08T23:55:28.055Z,30.40
2023-02-08T23:57:54.795Z,26.53
